sensor_id;sensor_type;location;lat;lon;timestamp;P1;durP1;ratioP1;P2;durP2;ratioP2
26620;SDS011;14253;44.840;10.444;2023-01-19T00:00:23;100.00;;;43.80;;
26620;SDS011;14253;44.840;10.444;2023-01-19T00:02:49;96.50;;;42.78;;
26620;SDS011;14253;44.840;10.444;2023-01-19T00:05:15;88.07;;;40.72;;
26620;SDS011;14253;44.840;10.444;2023-01-19T00:07:41;83.40;;;41.03;;
26620;SDS011;14253;44.840;10.444;2023-01-19T00:10:08;88.43;;;41.28;;
26620;SDS011;14253;44.840;10.444;2023-01-19T00:12:34;94.50;;;41.30;;
26620;SDS011;14253;44.840;10.444;2023-01-19T00:15:00;96.68;;;42.78;;
26620;SDS011;14253;44.840;10.444;2023-01-19T00:17:26;90.75;;;41.25;;
26620;SDS011;14253;44.840;10.444;2023-01-19T00:19:52;93.18;;;42.65;;
26620;SDS011;14253;44.840;10.444;2023-01-19T00:22:18;94.63;;;43.53;;
26620;SDS011;14253;44.840;10.444;2023-01-19T00:24:44;90.60;;;41.38;;
26620;SDS011;14253;44.840;10.444;2023-01-19T00:27:10;98.75;;;43.10;;
26620;SDS011;14253;44.840;10.444;2023-01-19T00:29:36;95.72;;;43.42;;
26620;SDS011;14253;44.840;10.444;2023-01-19T00:32:03;88.80;;;42.53;;
26620;SDS011;14253;44.840;10.444;2023-01-19T00:34:29;91.65;;;43.38;;
26620;SDS011;14253;44.840;10.444;2023-01-19T00:37:10;95.35;;;42.53;;
26620;SDS011;14253;44.840;10.444;2023-01-19T00:39:36;92.38;;;41.13;;
26620;SDS011;14253;44.840;10.444;2023-01-19T00:42:02;89.50;;;43.03;;
26620;SDS011;14253;44.840;10.444;2023-01-19T00:44:46;93.10;;;42.13;;
26620;SDS011;14253;44.840;10.444;2023-01-19T00:47:12;81.35;;;38.85;;
26620;SDS011;14253;44.840;10.444;2023-01-19T00:49:38;93.03;;;43.55;;
26620;SDS011;14253;44.840;10.444;2023-01-19T00:52:04;86.57;;;40.10;;
26620;SDS011;14253;44.840;10.444;2023-01-19T00:54:31;90.15;;;41.03;;
26620;SDS011;14253;44.840;10.444;2023-01-19T00:56:56;90.75;;;41.70;;
26620;SDS011;14253;44.840;10.444;2023-01-19T00:59:22;90.88;;;43.38;;
26620;SDS011;14253;44.840;10.444;2023-01-19T01:01:49;84.15;;;39.83;;
26620;SDS011;14253;44.840;10.444;2023-01-19T01:04:15;89.95;;;40.70;;
26620;SDS011;14253;44.840;10.444;2023-01-19T01:06:41;89.82;;;40.55;;
26620;SDS011;14253;44.840;10.444;2023-01-19T01:09:07;87.00;;;40.33;;
26620;SDS011;14253;44.840;10.444;2023-01-19T01:11:37;94.03;;;42.30;;
26620;SDS011;14253;44.840;10.444;2023-01-19T01:14:04;96.93;;;43.97;;
26620;SDS011;14253;44.840;10.444;2023-01-19T01:16:31;96.72;;;41.80;;
26620;SDS011;14253;44.840;10.444;2023-01-19T01:18:57;98.55;;;42.85;;
26620;SDS011;14253;44.840;10.444;2023-01-19T01:21:23;100.15;;;41.97;;
26620;SDS011;14253;44.840;10.444;2023-01-19T01:23:48;92.32;;;40.78;;
26620;SDS011;14253;44.840;10.444;2023-01-19T01:26:14;101.85;;;43.85;;
26620;SDS011;14253;44.840;10.444;2023-01-19T01:28:40;98.55;;;43.22;;
26620;SDS011;14253;44.840;10.444;2023-01-19T01:31:06;100.60;;;43.53;;
26620;SDS011;14253;44.840;10.444;2023-01-19T01:33:32;105.53;;;42.63;;
26620;SDS011;14253;44.840;10.444;2023-01-19T01:35:58;100.50;;;44.00;;
26620;SDS011;14253;44.840;10.444;2023-01-19T01:38:24;105.25;;;43.58;;
26620;SDS011;14253;44.840;10.444;2023-01-19T01:40:50;100.25;;;45.08;;
26620;SDS011;14253;44.840;10.444;2023-01-19T01:43:17;101.93;;;43.53;;
26620;SDS011;14253;44.840;10.444;2023-01-19T01:45:45;99.03;;;41.85;;
26620;SDS011;14253;44.840;10.444;2023-01-19T01:48:19;100.72;;;42.85;;
26620;SDS011;14253;44.840;10.444;2023-01-19T01:51:01;99.43;;;44.00;;
26620;SDS011;14253;44.840;10.444;2023-01-19T01:54:06;110.05;;;43.92;;
26620;SDS011;14253;44.840;10.444;2023-01-19T01:56:44;104.05;;;41.83;;
26620;SDS011;14253;44.840;10.444;2023-01-19T01:59:17;98.72;;;42.85;;
26620;SDS011;14253;44.840;10.444;2023-01-19T02:01:53;98.13;;;41.88;;
26620;SDS011;14253;44.840;10.444;2023-01-19T02:04:42;95.90;;;40.75;;
26620;SDS011;14253;44.840;10.444;2023-01-19T02:07:13;99.65;;;41.00;;
26620;SDS011;14253;44.840;10.444;2023-01-19T02:10:02;101.68;;;43.30;;
26620;SDS011;14253;44.840;10.444;2023-01-19T02:12:47;105.88;;;43.95;;
26620;SDS011;14253;44.840;10.444;2023-01-19T02:15:31;100.43;;;41.63;;
26620;SDS011;14253;44.840;10.444;2023-01-19T02:17:57;108.07;;;41.80;;
26620;SDS011;14253;44.840;10.444;2023-01-19T02:20:24;112.47;;;43.80;;
26620;SDS011;14253;44.840;10.444;2023-01-19T02:22:53;102.40;;;44.30;;
26620;SDS011;14253;44.840;10.444;2023-01-19T02:25:24;112.13;;;44.28;;
26620;SDS011;14253;44.840;10.444;2023-01-19T02:27:50;113.55;;;44.60;;
26620;SDS011;14253;44.840;10.444;2023-01-19T02:30:17;109.70;;;44.58;;
26620;SDS011;14253;44.840;10.444;2023-01-19T02:32:43;112.13;;;45.20;;
26620;SDS011;14253;44.840;10.444;2023-01-19T02:35:09;112.70;;;45.63;;
26620;SDS011;14253;44.840;10.444;2023-01-19T02:37:36;122.75;;;47.28;;
26620;SDS011;14253;44.840;10.444;2023-01-19T02:40:07;128.23;;;46.95;;
26620;SDS011;14253;44.840;10.444;2023-01-19T02:42:38;125.07;;;47.15;;
26620;SDS011;14253;44.840;10.444;2023-01-19T02:45:09;124.45;;;47.08;;
26620;SDS011;14253;44.840;10.444;2023-01-19T02:47:39;115.63;;;47.35;;
26620;SDS011;14253;44.840;10.444;2023-01-19T02:52:57;117.40;;;46.55;;
26620;SDS011;14253;44.840;10.444;2023-01-19T02:55:34;114.93;;;46.38;;
26620;SDS011;14253;44.840;10.444;2023-01-19T02:58:07;110.68;;;44.10;;
26620;SDS011;14253;44.840;10.444;2023-01-19T03:00:47;110.07;;;47.58;;
26620;SDS011;14253;44.840;10.444;2023-01-19T03:03:29;106.43;;;45.55;;
26620;SDS011;14253;44.840;10.444;2023-01-19T03:11:58;102.85;;;41.80;;
26620;SDS011;14253;44.840;10.444;2023-01-19T03:14:35;87.80;;;39.08;;
26620;SDS011;14253;44.840;10.444;2023-01-19T03:17:06;89.55;;;37.70;;
26620;SDS011;14253;44.840;10.444;2023-01-19T03:19:35;89.35;;;36.35;;
26620;SDS011;14253;44.840;10.444;2023-01-19T03:22:09;80.45;;;37.30;;
26620;SDS011;14253;44.840;10.444;2023-01-19T03:24:43;84.63;;;35.03;;
26620;SDS011;14253;44.840;10.444;2023-01-19T03:27:31;80.35;;;35.38;;
26620;SDS011;14253;44.840;10.444;2023-01-19T03:30:12;77.38;;;33.83;;
26620;SDS011;14253;44.840;10.444;2023-01-19T03:32:47;73.72;;;33.50;;
26620;SDS011;14253;44.840;10.444;2023-01-19T03:35:17;74.97;;;33.20;;
26620;SDS011;14253;44.840;10.444;2023-01-19T03:37:46;70.55;;;32.20;;
26620;SDS011;14253;44.840;10.444;2023-01-19T03:40:14;68.80;;;30.90;;
26620;SDS011;14253;44.840;10.444;2023-01-19T03:42:41;71.28;;;31.33;;
26620;SDS011;14253;44.840;10.444;2023-01-19T03:45:09;64.93;;;31.30;;
26620;SDS011;14253;44.840;10.444;2023-01-19T03:47:37;60.22;;;29.20;;
26620;SDS011;14253;44.840;10.444;2023-01-19T03:50:05;62.67;;;30.63;;
26620;SDS011;14253;44.840;10.444;2023-01-19T03:52:36;58.92;;;31.35;;
26620;SDS011;14253;44.840;10.444;2023-01-19T03:55:02;69.40;;;30.98;;
26620;SDS011;14253;44.840;10.444;2023-01-19T03:57:30;59.22;;;28.75;;
26620;SDS011;14253;44.840;10.444;2023-01-19T03:59:56;64.38;;;30.05;;
26620;SDS011;14253;44.840;10.444;2023-01-19T04:02:23;57.83;;;28.10;;
26620;SDS011;14253;44.840;10.444;2023-01-19T04:04:49;61.53;;;28.95;;
26620;SDS011;14253;44.840;10.444;2023-01-19T04:07:15;59.28;;;28.83;;
26620;SDS011;14253;44.840;10.444;2023-01-19T04:09:41;64.15;;;29.17;;
26620;SDS011;14253;44.840;10.444;2023-01-19T04:12:07;61.90;;;30.20;;
26620;SDS011;14253;44.840;10.444;2023-01-19T04:14:33;63.03;;;30.75;;
26620;SDS011;14253;44.840;10.444;2023-01-19T04:16:59;68.00;;;31.10;;
26620;SDS011;14253;44.840;10.444;2023-01-19T04:19:25;65.07;;;30.52;;
26620;SDS011;14253;44.840;10.444;2023-01-19T04:21:51;64.07;;;29.42;;
26620;SDS011;14253;44.840;10.444;2023-01-19T04:24:17;72.68;;;28.63;;
26620;SDS011;14253;44.840;10.444;2023-01-19T04:26:45;62.22;;;28.52;;
26620;SDS011;14253;44.840;10.444;2023-01-19T04:29:11;63.42;;;28.85;;
26620;SDS011;14253;44.840;10.444;2023-01-19T04:31:38;59.63;;;26.77;;
26620;SDS011;14253;44.840;10.444;2023-01-19T04:34:04;55.63;;;25.55;;
26620;SDS011;14253;44.840;10.444;2023-01-19T04:36:30;60.33;;;25.23;;
26620;SDS011;14253;44.840;10.444;2023-01-19T04:38:56;59.10;;;25.73;;
26620;SDS011;14253;44.840;10.444;2023-01-19T04:41:22;55.45;;;25.40;;
26620;SDS011;14253;44.840;10.444;2023-01-19T04:43:47;61.03;;;26.73;;
26620;SDS011;14253;44.840;10.444;2023-01-19T04:46:13;58.05;;;25.98;;
26620;SDS011;14253;44.840;10.444;2023-01-19T04:48:39;62.90;;;27.40;;
26620;SDS011;14253;44.840;10.444;2023-01-19T04:51:05;59.65;;;24.60;;
26620;SDS011;14253;44.840;10.444;2023-01-19T04:53:31;49.88;;;24.58;;
26620;SDS011;14253;44.840;10.444;2023-01-19T04:55:57;51.05;;;22.63;;
26620;SDS011;14253;44.840;10.444;2023-01-19T04:58:24;46.53;;;23.35;;
26620;SDS011;14253;44.840;10.444;2023-01-19T05:00:50;45.03;;;20.73;;
26620;SDS011;14253;44.840;10.444;2023-01-19T05:03:17;38.88;;;20.20;;
26620;SDS011;14253;44.840;10.444;2023-01-19T05:05:44;40.03;;;20.15;;
26620;SDS011;14253;44.840;10.444;2023-01-19T05:08:10;38.20;;;18.58;;
26620;SDS011;14253;44.840;10.444;2023-01-19T05:10:36;38.80;;;17.83;;
26620;SDS011;14253;44.840;10.444;2023-01-19T05:13:02;37.72;;;18.10;;
26620;SDS011;14253;44.840;10.444;2023-01-19T05:15:29;38.95;;;18.30;;
26620;SDS011;14253;44.840;10.444;2023-01-19T05:17:55;36.53;;;18.08;;
26620;SDS011;14253;44.840;10.444;2023-01-19T05:20:22;36.53;;;16.65;;
26620;SDS011;14253;44.840;10.444;2023-01-19T05:22:52;31.45;;;14.50;;
26620;SDS011;14253;44.840;10.444;2023-01-19T05:25:18;32.33;;;15.52;;
26620;SDS011;14253;44.840;10.444;2023-01-19T05:27:44;25.40;;;13.35;;
26620;SDS011;14253;44.840;10.444;2023-01-19T05:30:10;33.08;;;14.73;;
26620;SDS011;14253;44.840;10.444;2023-01-19T05:32:37;27.77;;;13.88;;
26620;SDS011;14253;44.840;10.444;2023-01-19T05:35:03;33.40;;;15.07;;
26620;SDS011;14253;44.840;10.444;2023-01-19T05:37:29;29.55;;;14.07;;
26620;SDS011;14253;44.840;10.444;2023-01-19T05:39:56;31.33;;;15.35;;
26620;SDS011;14253;44.840;10.444;2023-01-19T05:42:22;28.10;;;14.15;;
26620;SDS011;14253;44.840;10.444;2023-01-19T05:44:49;33.63;;;14.65;;
26620;SDS011;14253;44.840;10.444;2023-01-19T05:47:14;32.45;;;15.65;;
26620;SDS011;14253;44.840;10.444;2023-01-19T05:49:40;32.22;;;15.68;;
26620;SDS011;14253;44.840;10.444;2023-01-19T05:52:06;32.35;;;15.02;;
26620;SDS011;14253;44.840;10.444;2023-01-19T05:54:32;31.23;;;15.38;;
26620;SDS011;14253;44.840;10.444;2023-01-19T05:56:58;30.38;;;14.57;;
26620;SDS011;14253;44.840;10.444;2023-01-19T05:59:24;32.65;;;15.48;;
26620;SDS011;14253;44.840;10.444;2023-01-19T06:01:50;35.25;;;16.48;;
26620;SDS011;14253;44.840;10.444;2023-01-19T06:04:17;33.83;;;15.65;;
26620;SDS011;14253;44.840;10.444;2023-01-19T06:06:46;31.67;;;15.68;;
26620;SDS011;14253;44.840;10.444;2023-01-19T06:09:12;33.50;;;14.93;;
26620;SDS011;14253;44.840;10.444;2023-01-19T06:11:38;32.30;;;15.23;;
26620;SDS011;14253;44.840;10.444;2023-01-19T06:14:04;31.60;;;15.60;;
26620;SDS011;14253;44.840;10.444;2023-01-19T06:16:30;32.50;;;15.43;;
26620;SDS011;14253;44.840;10.444;2023-01-19T06:18:56;28.65;;;14.27;;
26620;SDS011;14253;44.840;10.444;2023-01-19T06:21:22;31.80;;;15.73;;
26620;SDS011;14253;44.840;10.444;2023-01-19T06:23:49;29.00;;;14.57;;
26620;SDS011;14253;44.840;10.444;2023-01-19T06:26:15;28.67;;;14.38;;
26620;SDS011;14253;44.840;10.444;2023-01-19T06:28:41;29.48;;;15.10;;
26620;SDS011;14253;44.840;10.444;2023-01-19T06:31:06;28.95;;;14.82;;
26620;SDS011;14253;44.840;10.444;2023-01-19T06:33:32;29.73;;;14.95;;
26620;SDS011;14253;44.840;10.444;2023-01-19T06:35:58;25.25;;;12.75;;
26620;SDS011;14253;44.840;10.444;2023-01-19T06:38:24;31.85;;;15.15;;
26620;SDS011;14253;44.840;10.444;2023-01-19T06:40:54;29.23;;;15.00;;
26620;SDS011;14253;44.840;10.444;2023-01-19T06:43:23;23.02;;;13.23;;
26620;SDS011;14253;44.840;10.444;2023-01-19T06:45:49;31.52;;;15.05;;
26620;SDS011;14253;44.840;10.444;2023-01-19T06:48:15;24.30;;;13.48;;
26620;SDS011;14253;44.840;10.444;2023-01-19T06:50:45;22.90;;;13.15;;
26620;SDS011;14253;44.840;10.444;2023-01-19T06:53:12;28.75;;;13.93;;
26620;SDS011;14253;44.840;10.444;2023-01-19T06:55:43;28.52;;;13.75;;
26620;SDS011;14253;44.840;10.444;2023-01-19T06:58:10;28.65;;;14.70;;
26620;SDS011;14253;44.840;10.444;2023-01-19T07:00:36;25.08;;;13.20;;
26620;SDS011;14253;44.840;10.444;2023-01-19T07:03:05;27.15;;;14.52;;
26620;SDS011;14253;44.840;10.444;2023-01-19T07:05:32;25.60;;;13.13;;
26620;SDS011;14253;44.840;10.444;2023-01-19T07:07:59;27.83;;;13.63;;
26620;SDS011;14253;44.840;10.444;2023-01-19T07:10:25;26.83;;;15.13;;
26620;SDS011;14253;44.840;10.444;2023-01-19T07:12:51;37.92;;;18.58;;
26620;SDS011;14253;44.840;10.444;2023-01-19T07:15:18;38.20;;;17.95;;
26620;SDS011;14253;44.840;10.444;2023-01-19T07:17:46;38.00;;;18.50;;
26620;SDS011;14253;44.840;10.444;2023-01-19T07:20:13;33.80;;;16.50;;
26620;SDS011;14253;44.840;10.444;2023-01-19T07:22:40;47.88;;;23.23;;
26620;SDS011;14253;44.840;10.444;2023-01-19T07:25:07;39.45;;;16.98;;
26620;SDS011;14253;44.840;10.444;2023-01-19T07:27:33;37.78;;;17.63;;
26620;SDS011;14253;44.840;10.444;2023-01-19T07:29:59;35.15;;;18.50;;
26620;SDS011;14253;44.840;10.444;2023-01-19T07:32:26;52.20;;;25.00;;
26620;SDS011;14253;44.840;10.444;2023-01-19T07:34:53;52.67;;;25.70;;
26620;SDS011;14253;44.840;10.444;2023-01-19T07:37:19;37.55;;;18.73;;
26620;SDS011;14253;44.840;10.444;2023-01-19T07:39:45;38.50;;;17.70;;
26620;SDS011;14253;44.840;10.444;2023-01-19T07:42:10;33.40;;;17.48;;
26620;SDS011;14253;44.840;10.444;2023-01-19T07:44:36;31.67;;;16.08;;
26620;SDS011;14253;44.840;10.444;2023-01-19T07:47:02;32.83;;;16.17;;
26620;SDS011;14253;44.840;10.444;2023-01-19T07:49:31;33.80;;;16.05;;
26620;SDS011;14253;44.840;10.444;2023-01-19T07:51:57;33.53;;;15.98;;
26620;SDS011;14253;44.840;10.444;2023-01-19T07:54:23;36.08;;;17.63;;
26620;SDS011;14253;44.840;10.444;2023-01-19T07:56:52;28.05;;;14.60;;
26620;SDS011;14253;44.840;10.444;2023-01-19T07:59:18;30.48;;;14.85;;
26620;SDS011;14253;44.840;10.444;2023-01-19T08:01:44;31.95;;;17.83;;
26620;SDS011;14253;44.840;10.444;2023-01-19T08:04:10;36.58;;;19.90;;
26620;SDS011;14253;44.840;10.444;2023-01-19T08:06:37;30.58;;;15.82;;
26620;SDS011;14253;44.840;10.444;2023-01-19T08:09:05;25.80;;;14.70;;
26620;SDS011;14253;44.840;10.444;2023-01-19T08:11:33;28.33;;;14.15;;
26620;SDS011;14253;44.840;10.444;2023-01-19T08:13:59;27.98;;;14.82;;
26620;SDS011;14253;44.840;10.444;2023-01-19T08:16:25;34.97;;;13.88;;
26620;SDS011;14253;44.840;10.444;2023-01-19T08:18:52;27.45;;;14.57;;
26620;SDS011;14253;44.840;10.444;2023-01-19T08:21:18;25.40;;;12.60;;
26620;SDS011;14253;44.840;10.444;2023-01-19T08:23:50;25.70;;;13.75;;
26620;SDS011;14253;44.840;10.444;2023-01-19T08:26:27;25.85;;;14.05;;
26620;SDS011;14253;44.840;10.444;2023-01-19T08:28:59;26.60;;;13.20;;
26620;SDS011;14253;44.840;10.444;2023-01-19T08:31:26;26.30;;;13.55;;
26620;SDS011;14253;44.840;10.444;2023-01-19T08:33:53;25.38;;;12.82;;
26620;SDS011;14253;44.840;10.444;2023-01-19T08:36:19;26.60;;;13.40;;
26620;SDS011;14253;44.840;10.444;2023-01-19T08:38:47;26.95;;;13.43;;
26620;SDS011;14253;44.840;10.444;2023-01-19T08:41:13;23.50;;;13.20;;
26620;SDS011;14253;44.840;10.444;2023-01-19T08:43:41;22.48;;;13.82;;
26620;SDS011;14253;44.840;10.444;2023-01-19T08:46:07;24.65;;;13.82;;
26620;SDS011;14253;44.840;10.444;2023-01-19T08:48:34;27.08;;;15.02;;
26620;SDS011;14253;44.840;10.444;2023-01-19T08:51:00;26.25;;;15.13;;
26620;SDS011;14253;44.840;10.444;2023-01-19T08:53:26;22.55;;;13.05;;
26620;SDS011;14253;44.840;10.444;2023-01-19T08:55:53;20.55;;;11.60;;
26620;SDS011;14253;44.840;10.444;2023-01-19T08:58:25;23.05;;;12.80;;
26620;SDS011;14253;44.840;10.444;2023-01-19T09:00:51;23.63;;;13.02;;
26620;SDS011;14253;44.840;10.444;2023-01-19T09:03:18;25.90;;;13.55;;
26620;SDS011;14253;44.840;10.444;2023-01-19T09:05:45;22.92;;;12.68;;
26620;SDS011;14253;44.840;10.444;2023-01-19T09:08:12;22.63;;;12.52;;
26620;SDS011;14253;44.840;10.444;2023-01-19T09:10:42;21.67;;;12.25;;
26620;SDS011;14253;44.840;10.444;2023-01-19T09:13:10;26.20;;;14.75;;
26620;SDS011;14253;44.840;10.444;2023-01-19T09:15:37;25.08;;;13.73;;
26620;SDS011;14253;44.840;10.444;2023-01-19T09:18:04;22.55;;;12.90;;
26620;SDS011;14253;44.840;10.444;2023-01-19T09:20:34;28.27;;;12.98;;
26620;SDS011;14253;44.840;10.444;2023-01-19T09:23:03;27.58;;;14.05;;
26620;SDS011;14253;44.840;10.444;2023-01-19T09:25:29;21.95;;;13.25;;
26620;SDS011;14253;44.840;10.444;2023-01-19T09:27:59;32.70;;;14.30;;
26620;SDS011;14253;44.840;10.444;2023-01-19T09:30:26;24.50;;;13.88;;
26620;SDS011;14253;44.840;10.444;2023-01-19T09:32:52;23.88;;;13.57;;
26620;SDS011;14253;44.840;10.444;2023-01-19T09:35:19;25.98;;;14.15;;
26620;SDS011;14253;44.840;10.444;2023-01-19T09:37:45;24.35;;;12.90;;
26620;SDS011;14253;44.840;10.444;2023-01-19T09:40:13;26.38;;;13.77;;
26620;SDS011;14253;44.840;10.444;2023-01-19T09:42:41;28.88;;;13.77;;
26620;SDS011;14253;44.840;10.444;2023-01-19T09:45:21;26.58;;;13.55;;
26620;SDS011;14253;44.840;10.444;2023-01-19T09:48:04;30.65;;;15.20;;
26620;SDS011;14253;44.840;10.444;2023-01-19T09:50:45;33.33;;;16.55;;
26620;SDS011;14253;44.840;10.444;2023-01-19T09:53:14;23.38;;;12.80;;
26620;SDS011;14253;44.840;10.444;2023-01-19T09:55:46;23.70;;;13.35;;
26620;SDS011;14253;44.840;10.444;2023-01-19T09:58:15;24.50;;;14.10;;
26620;SDS011;14253;44.840;10.444;2023-01-19T10:00:55;23.85;;;13.60;;
26620;SDS011;14253;44.840;10.444;2023-01-19T10:03:30;22.73;;;12.98;;
26620;SDS011;14253;44.840;10.444;2023-01-19T10:06:01;22.02;;;12.85;;
26620;SDS011;14253;44.840;10.444;2023-01-19T10:11:29;25.73;;;13.68;;
26620;SDS011;14253;44.840;10.444;2023-01-19T10:14:19;20.50;;;12.98;;
26620;SDS011;14253;44.840;10.444;2023-01-19T10:20:21;23.83;;;13.40;;
26620;SDS011;14253;44.840;10.444;2023-01-19T10:23:00;23.15;;;12.40;;
26620;SDS011;14253;44.840;10.444;2023-01-19T10:25:30;20.63;;;12.30;;
26620;SDS011;14253;44.840;10.444;2023-01-19T10:27:57;23.90;;;12.50;;
26620;SDS011;14253;44.840;10.444;2023-01-19T10:30:26;25.13;;;14.38;;
26620;SDS011;14253;44.840;10.444;2023-01-19T10:32:54;24.40;;;12.57;;
26620;SDS011;14253;44.840;10.444;2023-01-19T10:35:21;27.00;;;13.55;;
26620;SDS011;14253;44.840;10.444;2023-01-19T10:37:55;31.50;;;16.27;;
26620;SDS011;14253;44.840;10.444;2023-01-19T10:40:38;21.20;;;12.65;;
26620;SDS011;14253;44.840;10.444;2023-01-19T10:43:45;29.08;;;15.30;;
26620;SDS011;14253;44.840;10.444;2023-01-19T10:46:41;29.00;;;15.70;;
26620;SDS011;14253;44.840;10.444;2023-01-19T10:52:18;25.95;;;14.27;;
26620;SDS011;14253;44.840;10.444;2023-01-19T10:55:01;29.48;;;14.85;;
26620;SDS011;14253;44.840;10.444;2023-01-19T10:57:44;49.58;;;21.75;;
26620;SDS011;14253;44.840;10.444;2023-01-19T11:00:42;39.05;;;19.58;;
26620;SDS011;14253;44.840;10.444;2023-01-19T11:03:30;51.70;;;26.13;;
26620;SDS011;14253;44.840;10.444;2023-01-19T11:06:26;33.20;;;16.55;;
26620;SDS011;14253;44.840;10.444;2023-01-19T11:09:19;33.10;;;17.45;;
26620;SDS011;14253;44.840;10.444;2023-01-19T11:12:20;27.90;;;14.25;;
26620;SDS011;14253;44.840;10.444;2023-01-19T11:15:11;31.75;;;15.77;;
26620;SDS011;14253;44.840;10.444;2023-01-19T11:18:01;30.88;;;14.15;;
26620;SDS011;14253;44.840;10.444;2023-01-19T11:20:54;27.25;;;15.05;;
26620;SDS011;14253;44.840;10.444;2023-01-19T11:23:44;28.92;;;13.55;;
26620;SDS011;14253;44.840;10.444;2023-01-19T11:29:35;26.63;;;14.43;;
26620;SDS011;14253;44.840;10.444;2023-01-19T11:32:26;28.63;;;13.07;;
26620;SDS011;14253;44.840;10.444;2023-01-19T11:38:24;21.63;;;12.15;;
26620;SDS011;14253;44.840;10.444;2023-01-19T11:41:06;18.98;;;11.35;;
26620;SDS011;14253;44.840;10.444;2023-01-19T11:47:33;22.02;;;12.32;;
26620;SDS011;14253;44.840;10.444;2023-01-19T11:50:23;20.77;;;12.50;;
26620;SDS011;14253;44.840;10.444;2023-01-19T11:58:32;26.23;;;14.40;;
26620;SDS011;14253;44.840;10.444;2023-01-19T12:09:00;19.15;;;11.55;;
26620;SDS011;14253;44.840;10.444;2023-01-19T12:11:43;20.75;;;11.23;;
26620;SDS011;14253;44.840;10.444;2023-01-19T12:14:17;13.85;;;8.45;;
26620;SDS011;14253;44.840;10.444;2023-01-19T12:16:46;14.20;;;7.65;;
26620;SDS011;14253;44.840;10.444;2023-01-19T12:19:23;11.63;;;7.40;;
26620;SDS011;14253;44.840;10.444;2023-01-19T12:22:16;13.85;;;8.00;;
26620;SDS011;14253;44.840;10.444;2023-01-19T12:24:47;11.65;;;6.68;;
26620;SDS011;14253;44.840;10.444;2023-01-19T12:27:22;9.77;;;6.70;;
26620;SDS011;14253;44.840;10.444;2023-01-19T12:32:31;10.73;;;7.30;;
26620;SDS011;14253;44.840;10.444;2023-01-19T12:34:58;11.40;;;6.10;;
26620;SDS011;14253;44.840;10.444;2023-01-19T12:39:57;8.00;;;5.90;;
26620;SDS011;14253;44.840;10.444;2023-01-19T12:42:26;10.40;;;5.88;;
26620;SDS011;14253;44.840;10.444;2023-01-19T12:47:52;10.20;;;6.68;;
26620;SDS011;14253;44.840;10.444;2023-01-19T12:50:20;13.73;;;6.30;;
26620;SDS011;14253;44.840;10.444;2023-01-19T12:52:56;12.20;;;7.03;;
26620;SDS011;14253;44.840;10.444;2023-01-19T12:55:30;10.77;;;6.65;;
26620;SDS011;14253;44.840;10.444;2023-01-19T12:58:06;8.75;;;5.75;;
26620;SDS011;14253;44.840;10.444;2023-01-19T13:00:45;10.13;;;8.00;;
26620;SDS011;14253;44.840;10.444;2023-01-19T13:03:58;13.98;;;6.68;;
26620;SDS011;14253;44.840;10.444;2023-01-19T13:06:08;23.83;;;18.05;;
26620;SDS011;14253;44.840;10.444;2023-01-19T13:11:20;13.90;;;9.98;;
26620;SDS011;14253;44.840;10.444;2023-01-19T13:18:55;9.20;;;7.10;;
26620;SDS011;14253;44.840;10.444;2023-01-19T13:21:28;7.38;;;5.03;;
26620;SDS011;14253;44.840;10.444;2023-01-19T13:23:57;5.63;;;4.45;;
26620;SDS011;14253;44.840;10.444;2023-01-19T13:26:26;4.63;;;3.35;;
26620;SDS011;14253;44.840;10.444;2023-01-19T13:28:55;4.13;;;3.40;;
26620;SDS011;14253;44.840;10.444;2023-01-19T13:31:38;6.38;;;3.80;;
26620;SDS011;14253;44.840;10.444;2023-01-19T13:34:12;5.25;;;4.10;;
26620;SDS011;14253;44.840;10.444;2023-01-19T13:36:45;3.50;;;3.08;;
26620;SDS011;14253;44.840;10.444;2023-01-19T13:41:57;4.37;;;3.30;;
26620;SDS011;14253;44.840;10.444;2023-01-19T13:44:27;3.88;;;3.08;;
26620;SDS011;14253;44.840;10.444;2023-01-19T13:47:03;4.47;;;3.10;;
26620;SDS011;14253;44.840;10.444;2023-01-19T13:49:35;3.40;;;2.92;;
26620;SDS011;14253;44.840;10.444;2023-01-19T13:52:04;4.53;;;3.08;;
26620;SDS011;14253;44.840;10.444;2023-01-19T13:54:45;5.25;;;3.58;;
26620;SDS011;14253;44.840;10.444;2023-01-19T13:57:28;3.85;;;3.33;;
26620;SDS011;14253;44.840;10.444;2023-01-19T14:02:52;5.25;;;3.95;;
26620;SDS011;14253;44.840;10.444;2023-01-19T14:10:36;6.30;;;3.92;;
26620;SDS011;14253;44.840;10.444;2023-01-19T14:13:03;4.93;;;3.83;;
26620;SDS011;14253;44.840;10.444;2023-01-19T14:15:36;4.68;;;3.40;;
26620;SDS011;14253;44.840;10.444;2023-01-19T14:23:35;5.38;;;3.45;;
26620;SDS011;14253;44.840;10.444;2023-01-19T14:26:01;4.00;;;2.78;;
26620;SDS011;14253;44.840;10.444;2023-01-19T14:28:34;4.22;;;2.97;;
26620;SDS011;14253;44.840;10.444;2023-01-19T14:33:47;4.40;;;3.35;;
26620;SDS011;14253;44.840;10.444;2023-01-19T14:38:47;3.90;;;2.97;;
26620;SDS011;14253;44.840;10.444;2023-01-19T14:41:25;3.65;;;3.13;;
26620;SDS011;14253;44.840;10.444;2023-01-19T14:43:57;4.97;;;3.72;;
26620;SDS011;14253;44.840;10.444;2023-01-19T14:46:24;4.20;;;2.97;;
26620;SDS011;14253;44.840;10.444;2023-01-19T14:48:51;4.80;;;3.15;;
26620;SDS011;14253;44.840;10.444;2023-01-19T14:51:20;4.28;;;2.60;;
26620;SDS011;14253;44.840;10.444;2023-01-19T14:53:49;3.20;;;2.58;;
26620;SDS011;14253;44.840;10.444;2023-01-19T14:56:31;3.78;;;2.78;;
26620;SDS011;14253;44.840;10.444;2023-01-19T14:58:58;4.15;;;3.53;;
26620;SDS011;14253;44.840;10.444;2023-01-19T15:01:26;4.32;;;3.60;;
26620;SDS011;14253;44.840;10.444;2023-01-19T15:03:53;4.45;;;3.13;;
26620;SDS011;14253;44.840;10.444;2023-01-19T15:06:23;5.03;;;4.20;;
26620;SDS011;14253;44.840;10.444;2023-01-19T15:08:53;5.35;;;4.05;;
26620;SDS011;14253;44.840;10.444;2023-01-19T15:11:40;7.25;;;4.82;;
26620;SDS011;14253;44.840;10.444;2023-01-19T15:14:21;8.63;;;6.05;;
26620;SDS011;14253;44.840;10.444;2023-01-19T15:17:08;6.75;;;4.88;;
26620;SDS011;14253;44.840;10.444;2023-01-19T15:20:08;6.38;;;4.55;;
26620;SDS011;14253;44.840;10.444;2023-01-19T15:22:56;6.82;;;5.00;;
26620;SDS011;14253;44.840;10.444;2023-01-19T15:25:35;6.80;;;5.03;;
26620;SDS011;14253;44.840;10.444;2023-01-19T15:28:22;6.47;;;5.03;;
26620;SDS011;14253;44.840;10.444;2023-01-19T15:31:20;6.95;;;4.38;;
26620;SDS011;14253;44.840;10.444;2023-01-19T15:34:07;5.03;;;3.45;;
26620;SDS011;14253;44.840;10.444;2023-01-19T15:36:56;4.78;;;3.58;;
26620;SDS011;14253;44.840;10.444;2023-01-19T15:39:27;5.30;;;3.22;;
26620;SDS011;14253;44.840;10.444;2023-01-19T15:42:11;3.88;;;3.25;;
26620;SDS011;14253;44.840;10.444;2023-01-19T15:44:55;5.35;;;3.50;;
26620;SDS011;14253;44.840;10.444;2023-01-19T15:47:33;5.93;;;4.45;;
26620;SDS011;14253;44.840;10.444;2023-01-19T15:50:16;11.40;;;7.43;;
26620;SDS011;14253;44.840;10.444;2023-01-19T15:53:04;12.13;;;8.02;;